Group: AFO

Releases: 75.025 · Total size: 6,63 TB

First: 2003-06-26 · Last: 2026-08-31

By section: MP3/FLAC 74.048 (5,05 TB), TV/HD 788 (987,38 GB), Movies/HD 140 (582,99 GB), Movies/SD 42 (37,70 GB), TV/SD 7 (5,98 GB)

Release Section Group Size Files Date ↓
Mr._Sid-Flames-(GRTSQDRK003)-WEB-2022-AFO MP3/FLAC AFO 26,81 MB 7 2022-03-04
Metta_and_Glyde-Arcadia-(OF01)-SINGLE-WEB-2022-AFO MP3/FLAC AFO 17,37 MB 5 2022-03-04
Dio_S-isaaK-(PURR316)-WEB-2022-AFO MP3/FLAC AFO 49,06 MB 7 2022-03-04
RIGOONI-Primordial_Harvest_Banquet-(SG01)-WEB-2022-AFO MP3/FLAC AFO 28,23 MB 6 2022-03-04
VA-Timeless_Weapons-(TMC012)-WEB-2022-AFO MP3/FLAC AFO 429,75 MB 29 2022-03-04
LAR-Lone-(MCEP261)-WEB-2022-AFO MP3/FLAC AFO 31,71 MB 7 2022-03-04
VA-Best_of_the_Year_2020_Pt_2-(EST005C)-WEB-2022-AFO MP3/FLAC AFO 286,59 MB 22 2022-03-04
Eleven_Of_July-Amused_Mastery-(DDW144)-WEB-2022-AFO MP3/FLAC AFO 30,27 MB 6 2022-03-04
Blank_and_Jones-WhatWeDoAtNight_3-(4260154684884)-WEB-2022-AFO MP3/FLAC AFO 61,11 MB 12 2022-03-04
Pablo_Asturizaga-Comete-(NVR025)-WEB-2022-AFO MP3/FLAC AFO 36,28 MB 6 2022-03-04
aqua_(US)_and_Siberian_and_LVPIS-YDKM_Remixed-(TJ143)-WEB-2022-AFO MP3/FLAC AFO 37,21 MB 8 2022-03-04
Eelke_Kleijn-Oscillations_(The_Remixes)-READNFO-WEB-2022-AFO MP3/FLAC AFO 273,74 MB 25 2022-03-03
Mekao-Tomorrow-(SOL217)-WEB-2022-AFO MP3/FLAC AFO 32,47 MB 6 2022-03-03
FAWZY-Glorious_Comeback-(VAT016)-WEB-2022-AFO MP3/FLAC AFO 20,39 MB 6 2022-03-03
Eran_Hersh_and_Gad_Elbaz-Pray-(ETC359)-WEB-2022-AFO MP3/FLAC AFO 38,06 MB 7 2022-03-03
York-Cry_My_Name-(ENHANCED523)-WEB-2022-AFO MP3/FLAC AFO 24,17 MB 6 2022-03-03
Allan_Berndtz-Nu_Era-(ZT023)-WEB-2022-AFO MP3/FLAC AFO 20,54 MB 6 2022-03-03
David_Surok-Resistence-(DEF252)-WEB-2022-AFO MP3/FLAC AFO 25,42 MB 6 2022-03-03
Terra_V.-Speculo-(TF74)-SINGLE-WEB-2022-AFO MP3/FLAC AFO 9,15 MB 5 2022-03-03
Terra_V.-Speculo-(TF74A)-SINGLE-WEB-2022-AFO MP3/FLAC AFO 16,90 MB 5 2022-03-03
VA-Songspire_Records_The_Extended_Mixes_Vol_33-(MCS002)-WEB-2022-AFO MP3/FLAC AFO 152,31 MB 13 2022-03-03
VA-UV_200_Mixed_by_Paul_Thomas-(FSOEUVDC200B)-WEB-2022-AFO MP3/FLAC AFO 644,13 MB 42 2022-03-03
VA-Best_of_the_Year_2020_Pt_1-(EST004C)-WEB-2022-AFO MP3/FLAC AFO 298,85 MB 22 2022-03-03
VA-Songspire_Records_In_Miami_2022-(SSRC062)-WEB-2022-AFO MP3/FLAC AFO 144,41 MB 19 2022-03-03
Matter_ft_Graham_Baxter-Everything_So_Young_(2022_Rework)-(STR061)-WEB-2022-AFO MP3/FLAC AFO 59,94 MB 8 2022-03-03
JOMTEC-Rainy_Day-(ENV056)-WEB-2022-AFO MP3/FLAC AFO 23,62 MB 6 2022-03-03
Ben_Coda-Warrior_Dance-(BNG038)-WEB-2022-AFO MP3/FLAC AFO 51,73 MB 7 2022-03-03
DJ_Spaceman-Spotlight_(F.G._Noise_Remix)-(TT001R)-WEB-2022-AFO MP3/FLAC AFO 26,00 MB 6 2022-03-03
Amir_Rad-Signs_of_Glee-(TMU043)-WEB-2022-AFO MP3/FLAC AFO 26,29 MB 6 2022-03-03
Peter_Bozsa-Travel_Situation-(SOULART039)-WEB-2022-AFO MP3/FLAC AFO 43,09 MB 7 2022-03-03
Kasper_Koman-In_Circles_(Mike_Griego_Remixes)-(JBM056)-WEB-2022-AFO MP3/FLAC AFO 37,19 MB 6 2022-03-03
Puresoul-Nebula-(TMM188)-WEB-2022-AFO MP3/FLAC AFO 66,70 MB 10 2022-03-03
Feyln-How_They_Say-(ESM487)-WEB-2022-AFO MP3/FLAC AFO 21,52 MB 6 2022-03-03
Benjani_vs_Mac_and_Monday-Sanctum-(BORDM054)-SINGLE-WEB-2022-AFO MP3/FLAC AFO 19,18 MB 5 2022-03-03
mredrollo-Streams-(SPRLTD156)-WEB-2022-AFO MP3/FLAC AFO 48,41 MB 7 2022-03-03
Caeid-Hymn-(YR1741)-SINGLE-WEB-2022-AFO MP3/FLAC AFO 6,74 MB 5 2022-03-03
Jay_Flynn-Elysian-(ENRG001)-WEB-2022-AFO MP3/FLAC AFO 26,00 MB 6 2022-03-03
Hiromori_Aso_and_Christopher_Corrigan-Daylami-(ASC006)-WEB-2022-AFO MP3/FLAC AFO 48,03 MB 8 2022-03-03
AV-Vorkuta-(NV026)-WEB-2022-AFO MP3/FLAC AFO 18,37 MB 6 2022-03-03
Kash_Mihra-Resurrection-(EVO121)-SINGLE-WEB-2022-AFO MP3/FLAC AFO 10,78 MB 5 2022-03-03
David_Forbes_and_Mallorca_Lee-The_Master_(Extended_Mix)-(ARD135)-SINGLE-WEB-2022-AFO MP3/FLAC AFO 13,39 MB 5 2022-03-03
Joss_Langdon_and_Chris_Lyf-Into_The_Fray-(SDR519)-WEB-2022-AFO MP3/FLAC AFO 26,89 MB 6 2022-03-03
Ed_Sanchez-Nibiru_EP-(BTSR433)-WEB-2022-AFO MP3/FLAC AFO 31,68 MB 6 2022-03-03
KINETICA-Moonlight_Snow-(DKR005)-SINGLE-WEB-2022-AFO MP3/FLAC AFO 12,90 MB 5 2022-03-03
Enlusion-Harvester-(FOR106)-WEB-2022-AFO MP3/FLAC AFO 33,36 MB 6 2022-03-03
Jue-Eibisee-(SDR520)-SINGLE-WEB-2022-AFO MP3/FLAC AFO 17,06 MB 5 2022-03-03
Sunlight_Project-Again-(10216211)-WEB-2022-AFO MP3/FLAC AFO 24,21 MB 6 2022-03-03
Narik-Berlin_46G__Over-(AIRISRECS018)-WEB-2022-AFO MP3/FLAC AFO 27,83 MB 6 2022-03-03
VA-The_Sound_of_2022_Sampler_2-(ASR380)-WEB-2022-AFO MP3/FLAC AFO 75,39 MB 10 2022-03-03
Ucros-Sabal_Chase-(INTRICATE449)-WEB-2022-AFO MP3/FLAC AFO 43,37 MB 8 2022-03-03